Latest Coastal Weather Observations for Portland Harbour

IDV60701

Issued at 5:41 pm EDT Tuesday 12 December 2017 (issued every 10 minutes, with the page automatically refreshed every 10 minutes)

About coastal observations | Map of coastal stations | Coastal observations for VIC | Marine services | Other Formats
Station Details ID: 090192 Name: PORTLAND NTC AWS Lat: -38.34 Lon: 141.61 Height: 0.0 m
Data from the previous 72 hours. | See also: Recent months for locations in Victoria
Date/Time
EDT
Temp
°C
Wind Pressure Rain since
9am
mm
Weather Cloud Vis
km
Sea
Height
m
Swell
Dir  Spd
kts
Gust
kts
hPa Trend Height
m
Period
s
Dir
12/05:30pm 18.2 ESE 12 15 1013.4 - - - - - - - - -
12/05:00pm 18.1 ESE 12 15 1013.7 - - - - - - - - -
12/04:30pm 18.1 ESE 11 13 1014.0 - - - - - - - - -
12/04:00pm 18.2 ESE 12 14 1014.4 - - - - - - - - -
12/03:30pm 18.1 ESE 13 15 1014.7 - - - - - - - - -
12/03:00pm 18.0 ESE 11 13 1015.2 - - - - - - - - -
12/02:30pm 17.8 ESE 12 15 1015.5 - - - - - - - - -
12/02:00pm 17.8 SE 12 15 1015.8 - - - - - - - - -
12/01:30pm 18.1 ESE 12 14 1016.0 - - - - - - - - -
12/01:00pm 17.8 ESE 13 15 1016.2 - - - - - - - - -
12/12:30pm 17.6 ESE 12 15 1016.5 - - - - - - - - -
12/12:00pm 18.0 ESE 11 13 1016.8 - - - - - - - - -
12/11:30am 17.4 ESE 9 12 1017.0 - - - - - - - - -
12/11:00am 16.9 E 9 11 1017.2 - - - - - - - - -
12/10:30am 16.2 E 9 11 1017.5 - - - - - - - - -
12/10:00am 15.5 E 9 11 1017.6 - - - - - - - - -
12/09:30am 15.1 ENE 9 11 1017.9 - - - - - - - - -
12/09:00am 14.7 ENE 10 13 1018.0 - - - - - - - - -
12/08:30am 14.7 NE 13 15 1017.8 - - - - - - - - -
12/08:00am 15.1 ENE 13 15 1017.9 - - - - - - - - -
12/07:30am 14.8 ENE 12 14 1017.8 - - - - - - - - -
12/07:00am 14.5 NE 14 16 1017.3 - - - - - - - - -
12/06:30am 14.6 NE 14 16 1017.3 - - - - - - - - -
12/06:00am 14.9 NE 12 15 1017.3 - - - - - - - - -
12/05:30am 15.6 ENE 12 14 1017.5 - - - - - - - - -
12/05:00am 15.7 E 11 13 1017.7 - - - - - - - - -
12/04:30am 15.7 E 12 14 1017.7 - - - - - - - - -
12/04:00am 15.6 E 10 14 1018.1 - - - - - - - - -
12/03:30am 15.9 E 10 12 1018.5 - - - - - - - - -
12/03:00am 15.7 E 10 14 1018.8 - - - - - - - - -
12/02:30am 15.9 ESE 10 15 1018.8 - - - - - - - - -
12/02:00am 15.9 ESE 10 14 1019.4 - - - - - - - - -
12/01:30am 15.9 ESE 9 13 1019.9 - - - - - - - - -
12/01:00am 16.0 E 11 15 1019.9 - - - - - - - - -
12/12:30am 16.0 E 10 15 1020.7 - - - - - - - - -
12/12:00am 16.3 ESE 9 13 1021.0 - - - - - - - - -
 
Date/Time
EDT
Temp
°C
Wind Pressure Rain since
9am
mm
Weather Cloud Vis
km
Sea
Height
m
Swell
Dir  Spd
kts
Gust
kts
hPa Trend Height
m
Period
s
Dir
11/11:30pm 16.3 SE 9 14 1021.1 - - - - - - - - -
11/11:00pm 16.4 SE 8 11 1021.2 - - - - - - - - -
11/10:30pm 16.5 SE 8 12 1021.6 - - - - - - - - -
11/10:00pm 16.5 ESE 9 13 1021.4 - - - - - - - - -
11/09:30pm 16.6 SE 8 12 1021.4 - - - - - - - - -
11/09:00pm 16.6 SSE 8 14 1021.3 - - - - - - - - -
11/08:30pm 16.8 SE 7 11 1021.1 - - - - - - - - -
11/08:00pm 16.9 S 8 13 1021.1 - - - - - - - - -
11/07:30pm 17.0 SSE 10 14 1021.0 - - - - - - - - -
11/07:00pm 17.0 SSE 11 16 1021.0 - - - - - - - - -
11/06:30pm 17.3 S 11 16 1021.0 - - - - - - - - -
11/06:00pm 17.6 S 11 16 1021.0 - - - - - - - - -
11/05:30pm 17.5 S 10 14 1021.2 - - - - - - - - -
11/05:00pm 17.3 SSE 9 13 1021.2 - - - - - - - - -
11/04:30pm 17.4 S 9 14 1021.4 - - - - - - - - -
11/04:00pm 17.6 SSE 7 14 1021.4 - - - - - - - - -
11/03:30pm 17.4 SE 9 14 1021.3 - - - - - - - - -
11/03:00pm 17.3 S 9 13 1021.6 - - - - - - - - -
11/02:30pm 17.3 S 10 17 1021.6 - - - - - - - - -
11/02:00pm 17.3 SSE 9 13 1021.9 - - - - - - - - -
11/01:30pm 16.9 SSE 7 12 1022.2 - - - - - - - - -
11/01:00pm 16.4 SE 6 10 1022.4 - - - - - - - - -
11/12:30pm 15.9 E 8 10 1022.4 - - - - - - - - -
11/12:00pm 15.5 ESE 8 10 1022.7 - - - - - - - - -
11/11:30am 16.6 S 9 12 1022.8 - - - - - - - - -
11/11:00am 16.2 SSW 9 13 1022.9 - - - - - - - - -
11/10:30am 15.2 SSW 10 14 1023.0 - - - - - - - - -
11/10:00am 15.7 SE 7 11 1022.9 - - - - - - - - -
11/09:30am 15.4 SE 4 7 1022.9 - - - - - - - - -
11/09:00am 14.5 SW 4 6 1022.8 - - - - - - - - -
11/08:30am 14.5 SSE 5 8 1022.6 - - - - - - - - -
11/08:00am 14.8 SE 4 5 1022.4 - - - - - - - - -
11/07:30am 14.3 S 8 9 1022.1 - - - - - - - - -
11/07:00am 14.7 SSW 8 11 1021.8 - - - - - - - - -
11/06:30am 15.1 S 8 13 1021.7 - - - - - - - - -
11/06:00am 14.9 SSW 5 8 1021.5 - - - - - - - - -
11/05:30am 15.3 SW 3 6 1021.3 - - - - - - - - -
11/05:00am 15.2 WSW 5 6 1021.2 - - - - - - - - -
11/04:30am 15.6 WSW 2 4 1021.0 - - - - - - - - -
11/04:00am 15.5 SW 3 5 1021.1 - - - - - - - - -
11/03:30am 15.5 WSW 3 4 1021.4 - - - - - - - - -
11/03:00am 15.5 WSW 4 6 1021.7 - - - - - - - - -
11/02:30am 15.8 SW 4 10 1022.0 - - - - - - - - -
11/02:00am 15.7 SSW 3 6 1022.1 - - - - - - - - -
11/01:30am 15.9 WSW 3 4 1022.5 - - - - - - - - -
11/01:00am 15.9 SSW 6 9 1022.7 - - - - - - - - -
11/12:30am 16.0 SSW 7 10 1023.2 - - - - - - - - -
11/12:00am 16.2 WSW 4 5 1023.3 - - - - - - - - -
 
Date/Time
EDT
Temp
°C
Wind Pressure Rain since
9am
mm
Weather Cloud Vis
km
Sea
Height
m
Swell
Dir  Spd
kts
Gust
kts
hPa Trend Height
m
Period
s
Dir
10/11:30pm 16.1 SW 2 4 1023.4 - - - - - - - - -
10/11:00pm 16.1 SW 5 7 1023.6 - - - - - - - - -
10/10:30pm 16.1 SSW 6 8 1023.6 - - - - - - - - -
10/10:00pm 16.1 SW 7 11 1023.5 - - - - - - - - -
10/09:30pm 16.5 SW 6 9 1023.3 - - - - - - - - -
10/09:00pm 16.7 SSW 5 7 1023.1 - - - - - - - - -
10/08:30pm 16.7 SW 7 10 1023.3 - - - - - - - - -
10/08:00pm 16.8 SW 7 12 1023.3 - - - - - - - - -
10/07:30pm 16.8 WSW 10 16 1023.1 - - - - - - - - -
10/07:00pm 17.2 SW 9 16 1022.9 - - - - - - - - -
10/06:30pm 17.3 WSW 10 17 1022.8 - - - - - - - - -
10/06:00pm 17.5 SW 10 13 1022.7 - - - - - - - - -
10/05:30pm 17.2 SW 12 16 1022.8 - - - - - - - - -
10/05:00pm 17.3 SW 11 15 1022.7 - - - - - - - - -
10/04:30pm 17.7 SW 11 17 1022.9 - - - - - - - - -
10/04:00pm 17.6 SW 12 17 1022.9 - - - - - - - - -
10/03:30pm 17.1 SW 12 16 1023.1 - - - - - - - - -
10/03:00pm 17.4 SW 12 17 1023.0 - - - - - - - - -
10/02:30pm 17.5 WSW 12 16 1023.1 - - - - - - - - -
10/02:00pm 17.6 WSW 11 17 1023.3 - - - - - - - - -
10/01:30pm 17.6 WSW 9 14 1023.4 - - - - - - - - -
10/01:00pm 17.2 WSW 11 15 1023.5 - - - - - - - - -
10/12:30pm 17.1 W 10 15 1023.6 - - - - - - - - -
10/12:00pm 17.1 W 11 17 1023.5 - - - - - - - - -
10/11:30am 17.0 W 11 17 1023.5 - - - - - - - - -
10/11:00am 16.7 WSW 11 15 1023.5 - - - - - - - - -
10/10:30am 16.3 W 8 13 1023.5 - - - - - - - - -
10/10:00am 16.3 WSW 9 14 1023.5 - - - - - - - - -
10/09:30am 16.1 W 8 14 1023.5 - - - - - - - - -
10/09:00am 16.0 W 7 11 1023.3 - - - - - - - - -
10/08:30am 15.8 WNW 8 11 1023.1 - - - - - - - - -
10/08:00am 15.8 W 6 9 1022.7 - - - - - - - - -
10/07:30am 15.7 WSW 6 8 1022.6 - - - - - - - - -
10/07:00am 15.4 W 3 6 1022.4 - - - - - - - - -
10/06:30am 15.6 WNW 7 9 1022.2 - - - - - - - - -
10/06:00am 15.5 W 5 7 1022.1 - - - - - - - - -
10/05:30am 15.5 W 5 7 1021.8 - - - - - - - - -
10/05:00am 15.5 WSW 7 11 1021.7 - - - - - - - - -
10/04:30am 15.8 W 5 8 1021.7 - - - - - - - - -
10/04:00am 15.7 WNW 4 5 1021.5 - - - - - - - - -
10/03:30am 15.8 WSW 5 8 1021.6 - - - - - - - - -
10/03:00am 15.9 W 5 8 1021.8 - - - - - - - - -
10/02:30am 15.9 W 4 6 1021.8 - - - - - - - - -
10/02:00am 15.8 W 3 5 1021.9 - - - - - - - - -
10/01:30am 15.9 W 5 8 1022.0 - - - - - - - - -
10/01:00am 15.8 W 3 5 1022.2 - - - - - - - - -
10/12:30am 15.8 W 7 11 1022.3 - - - - - - - - -
10/12:00am 15.7 WNW 5 7 1022.5 - - - - - - - - -
 
Date/Time
EDT
Temp
°C
Wind Pressure Rain since
9am
mm
Weather Cloud Vis
km
Sea
Height
m
Swell
Dir  Spd
kts
Gust
kts
hPa Trend Height
m
Period
s
Dir
09/11:30pm 16.0 WNW 5 8 1022.5 - - - - - - - - -
09/11:00pm 16.1 WNW 4 6 1022.8 - - - - - - - - -
09/10:30pm 16.3 WNW 6 9 1022.7 - - - - - - - - -
09/10:00pm 16.5 W 6 10 1022.7 - - - - - - - - -
09/09:30pm 16.5 WSW 8 13 1022.5 - - - - - - - - -
09/09:00pm 16.6 WNW 7 10 1022.3 - - - - - - - - -
09/08:30pm 16.8 WSW 9 14 1022.1 - - - - - - - - -
09/08:00pm 16.7 WSW 13 19 1022.0 - - - - - - - - -
09/07:30pm 16.8 W 12 19 1021.8 - - - - - - - - -
09/07:00pm 17.0 W 12 19 1021.5 - - - - - - - - -
09/06:30pm 17.0 WSW 12 16 1021.3 - - - - - - - - -
09/06:00pm 16.1 WSW 11 16 1021.6 - - - - - - - - -

Other Formats:

Comma delimited format used in spreadsheet applications
http://www.bom.gov.au/fwo/IDV60701/IDV60701.95826.axf

JavaScript Object Notation format (JSON) in row-major order
http://www.bom.gov.au/fwo/IDV60701/IDV60701.95826.json